Time;durP1;ratioP1;P1;durP2;ratioP2;P2;SDS_P1;SDS_P2;PMS_P1;PMS_P2;Temp;Humidity;BMP_temperature;BMP_pressure;BME280_temperature;BME280_humidity;BME280_pressure;Samples;Min_cycle;Max_cycle;Signal;HPM_P1;HPM_P2
2023/04/20 00:01:06;;;;;;;0.20;0.20;;;4.70;99.90;;;;;;5067866;28;20172;-82
2023/04/20 00:03:32;;;;;;;0.30;0.30;;;4.70;99.90;;;;;;5076500;28;20043;-81
2023/04/20 00:06:00;;;;;;;0.40;0.40;;;4.60;99.90;;;;;;5076400;28;20045;-81
2023/04/20 00:08:27;;;;;;;0.45;0.45;;;4.60;99.90;;;;;;5078251;28;20312;-79
2023/04/20 00:10:53;;;;;;;0.40;0.40;;;4.60;99.90;;;;;;5077050;28;20065;-80
2023/04/20 00:13:18;;;;;;;0.40;0.40;;;4.70;99.90;;;;;;5077006;28;20087;-80
2023/04/20 00:15:44;;;;;;;0.40;0.40;;;4.70;99.90;;;;;;5073130;28;20488;-82
2023/04/20 00:18:10;;;;;;;0.20;0.20;;;4.70;99.90;;;;;;5062259;28;20025;-81
2023/04/20 00:20:37;;;;;;;0.08;0.08;;;4.70;99.90;;;;;;5062916;28;20032;-83
2023/04/20 00:23:03;;;;;;;0.10;0.10;;;4.70;99.90;;;;;;5062417;28;20037;-82
2023/04/20 00:25:30;;;;;;;0.10;0.10;;;4.80;99.90;;;;;;5063373;28;20036;-82
2023/04/20 00:27:56;;;;;;;0.10;0.10;;;4.80;99.90;;;;;;5061838;28;20074;-82
2023/04/20 00:30:22;;;;;;;0.10;0.10;;;4.70;99.90;;;;;;5070050;28;20031;-83
2023/04/20 00:32:47;;;;;;;0.10;0.10;;;4.70;99.90;;;;;;5080057;28;20025;-81
2023/04/20 00:35:13;;;;;;;0.10;0.10;;;4.70;99.90;;;;;;5081966;28;20024;-82
2023/04/20 00:37:39;;;;;;;0.10;0.10;;;4.70;99.90;;;;;;5082385;28;20082;-82
2023/04/20 00:40:06;;;;;;;0.20;0.20;;;4.70;99.90;;;;;;5090600;28;20056;-82
2023/04/20 00:42:32;;;;;;;0.35;0.30;;;4.70;99.90;;;;;;5100423;28;20111;-83
2023/04/20 00:44:57;;;;;;;0.65;0.40;;;4.60;99.90;;;;;;5076273;28;20061;-82
2023/04/20 00:47:23;;;;;;;0.35;0.35;;;4.60;99.90;;;;;;5060374;28;20025;-82
2023/04/20 00:49:50;;;;;;;0.43;0.30;;;4.60;99.90;;;;;;5060467;28;20029;-81
2023/04/20 00:52:16;;;;;;;0.47;0.40;;;4.60;99.90;;;;;;5072872;28;20039;-80
2023/04/20 00:54:42;;;;;;;0.47;0.40;;;4.70;99.90;;;;;;5079983;28;20143;-82
2023/04/20 00:57:09;;;;;;;0.50;0.50;;;4.70;99.90;;;;;;5081903;28;20032;-82
2023/04/20 00:59:35;;;;;;;0.40;0.40;;;4.70;99.90;;;;;;5079855;28;20433;-82
2023/04/20 01:02:00;;;;;;;0.40;0.40;;;4.60;99.90;;;;;;5079112;28;20035;-82
2023/04/20 01:04:26;;;;;;;0.52;0.40;;;4.70;99.90;;;;;;5082279;28;20151;-82
2023/04/20 01:06:52;;;;;;;0.40;0.40;;;4.70;99.90;;;;;;5085365;28;20031;-82
2023/04/20 01:09:17;;;;;;;1.02;0.60;;;4.70;99.90;;;;;;5087642;28;20016;-82
2023/04/20 01:11:43;;;;;;;0.77;0.70;;;4.60;99.90;;;;;;5091474;28;20046;-82
2023/04/20 01:14:09;;;;;;;0.60;0.60;;;4.60;99.90;;;;;;5099607;28;20070;-82
2023/04/20 01:16:35;;;;;;;0.80;0.70;;;4.70;99.90;;;;;;5099643;28;20020;-82
2023/04/20 01:19:01;;;;;;;0.32;0.32;;;4.70;99.90;;;;;;5075882;28;20066;-81
2023/04/20 01:21:27;;;;;;;0.30;0.30;;;4.70;99.90;;;;;;5080283;28;20415;-81
2023/04/20 01:23:52;;;;;;;0.80;0.52;;;4.70;99.90;;;;;;5078372;28;20024;-82
2023/04/20 01:26:22;;;;;;;0.80;0.50;;;4.60;99.90;;;;;;5079277;28;20024;-82
2023/04/20 01:28:48;;;;;;;1.17;0.70;;;4.60;99.90;;;;;;5082606;28;20020;-81
2023/04/20 01:31:14;;;;;;;0.73;0.40;;;4.60;99.90;;;;;;5083956;28;20034;-83
2023/04/20 01:33:40;;;;;;;0.35;0.35;;;4.70;99.90;;;;;;5085298;28;20087;-82
2023/04/20 01:36:06;;;;;;;0.40;0.40;;;4.80;99.90;;;;;;5091189;28;20175;-82
2023/04/20 01:38:33;;;;;;;0.20;0.20;;;4.80;99.90;;;;;;5089637;28;20080;-82
2023/04/20 01:41:00;;;;;;;0.17;0.17;;;4.90;99.90;;;;;;5100767;28;20048;-81
2023/04/20 01:43:26;;;;;;;0.13;0.13;;;4.90;99.90;;;;;;5094190;28;20028;-81
2023/04/20 01:45:52;;;;;;;0.13;0.13;;;4.80;99.90;;;;;;5092819;28;20024;-81
2023/04/20 01:48:22;;;;;;;0.20;0.20;;;4.80;99.90;;;;;;5095150;28;20017;-80
2023/04/20 01:50:51;;;;;;;0.85;0.40;;;4.70;99.90;;;;;;5093930;28;20029;-83
2023/04/20 01:53:20;;;;;;;0.38;0.38;;;4.70;99.90;;;;;;5084627;28;20032;-81
2023/04/20 01:55:47;;;;;;;1.38;0.57;;;4.60;99.90;;;;;;5081714;28;20480;-81
2023/04/20 01:58:13;;;;;;;1.23;0.90;;;4.60;99.90;;;;;;5093043;28;20088;-81
2023/04/20 02:00:42;;;;;;;2.85;1.23;;;4.60;99.90;;;;;;5092318;28;20043;-80
2023/04/20 02:03:08;;;;;;;1.17;1.02;;;4.60;99.90;;;;;;5087912;28;20040;-81
2023/04/20 02:05:33;;;;;;;1.45;1.20;;;4.60;99.90;;;;;;5089563;28;20107;-80
2023/04/20 02:07:59;;;;;;;1.42;0.80;;;4.60;99.90;;;;;;5088118;28;20028;-80
2023/04/20 02:10:25;;;;;;;1.40;0.75;;;4.70;99.90;;;;;;5097184;28;20020;-82
2023/04/20 02:12:51;;;;;;;0.93;0.57;;;4.70;99.90;;;;;;5091404;28;20029;-81
2023/04/20 02:15:17;;;;;;;0.70;0.38;;;4.70;99.90;;;;;;5084247;28;20135;-81
2023/04/20 02:17:42;;;;;;;0.57;0.57;;;4.70;99.90;;;;;;5059445;28;20120;-81
2023/04/20 02:20:11;;;;;;;0.80;0.68;;;4.60;99.90;;;;;;5058897;28;20028;-82
2023/04/20 02:22:37;;;;;;;1.65;1.00;;;4.50;99.90;;;;;;5057389;28;20386;-82
2023/04/20 02:25:05;;;;;;;0.70;0.70;;;4.40;99.90;;;;;;5055837;28;20044;-81
2023/04/20 02:27:31;;;;;;;1.80;1.20;;;4.40;99.90;;;;;;5056496;28;20108;-81
2023/04/20 02:29:57;;;;;;;2.65;1.50;;;4.30;99.90;;;;;;5056459;28;20021;-81
2023/04/20 02:32:23;;;;;;;2.15;1.05;;;4.20;99.90;;;;;;5054185;28;20017;-82
2023/04/20 02:34:48;;;;;;;2.83;1.80;;;4.20;99.90;;;;;;5058326;28;20032;-82
2023/04/20 02:37:14;;;;;;;3.17;1.63;;;4.10;99.90;;;;;;5059409;28;20101;-82
2023/04/20 02:39:40;;;;;;;2.20;1.38;;;4.10;99.90;;;;;;5077897;28;20046;-81
2023/04/20 02:42:05;;;;;;;2.53;1.42;;;4.20;99.90;;;;;;5086183;28;20457;-80
2023/04/20 02:44:31;;;;;;;1.08;0.95;;;4.20;99.90;;;;;;5080036;28;20031;-81
2023/04/20 02:46:57;;;;;;;1.90;1.67;;;4.20;99.90;;;;;;5079110;28;20035;-81
2023/04/20 02:49:22;;;;;;;1.40;1.20;;;4.10;99.90;;;;;;5067477;28;20040;-82
2023/04/20 02:51:48;;;;;;;1.73;1.10;;;4.20;99.90;;;;;;5057139;28;20039;-82
2023/04/20 02:54:14;;;;;;;0.93;0.90;;;4.20;99.90;;;;;;5056399;28;20036;-81
2023/04/20 02:56:39;;;;;;;1.05;1.02;;;4.20;99.90;;;;;;5057159;28;20367;-82
2023/04/20 02:59:05;;;;;;;0.80;0.80;;;4.30;99.90;;;;;;5058583;28;20051;-81
2023/04/20 03:01:31;;;;;;;0.73;0.73;;;4.30;99.90;;;;;;5059030;28;20043;-81
2023/04/20 03:03:57;;;;;;;0.60;0.50;;;4.30;99.90;;;;;;5060028;28;20040;-81
2023/04/20 03:06:22;;;;;;;0.75;0.50;;;4.30;99.90;;;;;;5059340;28;20039;-82
2023/04/20 03:08:48;;;;;;;0.60;0.60;;;4.30;99.90;;;;;;5063626;28;20025;-81
2023/04/20 03:11:14;;;;;;;0.68;0.52;;;4.40;99.90;;;;;;5095253;28;20072;-81
2023/04/20 03:13:40;;;;;;;0.80;0.60;;;4.40;99.90;;;;;;5081072;28;20054;-82
2023/04/20 03:16:06;;;;;;;1.23;1.13;;;4.40;99.90;;;;;;5080257;28;20029;-82
2023/04/20 03:18:32;;;;;;;1.55;1.33;;;4.30;99.90;;;;;;5078781;28;20024;-82
2023/04/20 03:20:58;;;;;;;1.60;1.10;;;4.30;99.90;;;;;;5078835;28;20028;-80
2023/04/20 03:23:23;;;;;;;1.50;1.10;;;4.30;99.90;;;;;;5076906;28;20504;-80
2023/04/20 03:25:49;;;;;;;1.30;1.20;;;4.30;99.90;;;;;;5077520;28;20028;-83
2023/04/20 03:28:15;;;;;;;1.08;0.90;;;4.30;99.90;;;;;;5078468;28;20024;-82
2023/04/20 03:30:41;;;;;;;1.42;1.00;;;4.30;99.90;;;;;;5079719;28;20449;-82
2023/04/20 03:33:07;;;;;;;1.88;1.10;;;4.30;99.90;;;;;;5078953;28;20033;-81
2023/04/20 03:35:33;;;;;;;1.88;1.45;;;4.30;99.90;;;;;;5079174;28;20115;-82
2023/04/20 03:38:00;;;;;;;2.25;1.63;;;4.30;99.90;;;;;;5079600;28;20457;-81
2023/04/20 03:40:26;;;;;;;3.03;2.08;;;4.30;99.90;;;;;;5094135;28;20073;-79
2023/04/20 03:42:51;;;;;;;5.90;3.13;;;4.20;99.90;;;;;;5095291;28;20057;-80
2023/04/20 03:45:17;;;;;;;7.05;3.58;;;4.20;99.90;;;;;;5094766;28;20035;-80
2023/04/20 03:47:43;;;;;;;5.68;3.13;;;4.20;99.90;;;;;;5090111;28;20039;-80
2023/04/20 03:50:09;;;;;;;8.20;3.95;;;4.20;99.90;;;;;;5085196;28;20040;-80
2023/04/20 03:52:35;;;;;;;9.77;4.90;;;4.10;99.90;;;;;;5092287;28;20035;-81
2023/04/20 03:55:01;;;;;;;7.53;4.50;;;4.10;99.90;;;;;;5081424;28;20092;-81
2023/04/20 03:57:26;;;;;;;6.57;4.10;;;4.10;99.90;;;;;;5085593;28;20020;-81
2023/04/20 03:59:52;;;;;;;8.32;4.60;;;4.10;99.90;;;;;;5094295;28;20031;-82
2023/04/20 04:02:18;;;;;;;5.88;3.55;;;4.10;99.90;;;;;;5087844;28;20017;-82
2023/04/20 04:04:44;;;;;;;5.13;3.60;;;4.20;99.90;;;;;;5093978;28;20029;-82
2023/04/20 04:07:10;;;;;;;6.95;3.80;;;4.20;99.90;;;;;;5089541;28;20025;-82
2023/04/20 04:09:35;;;;;;;6.45;3.88;;;4.10;99.90;;;;;;5098538;28;20177;-83
2023/04/20 04:12:03;;;;;;;7.78;4.63;;;4.10;99.90;;;;;;5106971;28;20020;-82
2023/04/20 04:14:29;;;;;;;9.15;5.10;;;4.10;99.90;;;;;;5107627;28;20027;-82
2023/04/20 04:16:55;;;;;;;8.90;5.68;;;4.00;99.90;;;;;;5094656;28;20033;-82
2023/04/20 04:19:21;;;;;;;8.43;5.07;;;4.00;99.90;;;;;;5066597;28;20021;-82
2023/04/20 04:21:47;;;;;;;8.02;5.03;;;4.00;99.90;;;;;;5068959;28;20081;-82
2023/04/20 04:24:13;;;;;;;7.95;4.43;;;4.00;99.90;;;;;;5066636;28;20063;-82
2023/04/20 04:26:38;;;;;;;6.10;3.92;;;4.00;99.90;;;;;;5064655;28;20326;-81
2023/04/20 04:29:05;;;;;;;8.05;5.72;;;4.00;99.90;;;;;;5062931;28;20055;-82
2023/04/20 04:31:31;;;;;;;10.00;5.25;;;4.00;99.90;;;;;;5063365;28;20017;-83
2023/04/20 04:33:57;;;;;;;6.70;4.75;;;4.00;99.90;;;;;;5075017;28;20048;-82
2023/04/20 04:36:25;;;;;;;9.52;5.15;;;4.00;99.90;;;;;;5084263;28;20065;-82
2023/04/20 04:38:52;;;;;;;7.85;4.88;;;4.00;99.90;;;;;;5091472;28;20036;-81
2023/04/20 04:41:17;;;;;;;7.68;4.78;;;4.00;99.90;;;;;;5115739;28;20015;-84
2023/04/20 04:43:44;;;;;;;6.15;4.88;;;4.00;99.90;;;;;;5114636;28;20028;-82
2023/04/20 04:46:12;;;;;;;6.97;4.07;;;4.10;99.90;;;;;;5111948;28;20024;-82
2023/04/20 04:48:42;;;;;;;6.57;4.45;;;4.10;99.90;;;;;;5111693;28;20525;-81
2023/04/20 04:51:08;;;;;;;7.03;4.55;;;4.10;99.90;;;;;;5083088;28;20024;-81
2023/04/20 04:53:34;;;;;;;7.35;3.65;;;4.10;99.90;;;;;;5071830;28;20025;-83
2023/04/20 04:56:00;;;;;;;6.43;4.00;;;4.10;99.90;;;;;;5071035;28;20112;-82
2023/04/20 04:58:26;;;;;;;7.07;4.43;;;4.20;99.90;;;;;;5069151;28;20033;-82
2023/04/20 05:00:52;;;;;;;7.68;4.70;;;4.20;99.90;;;;;;5070091;28;20335;-82
2023/04/20 05:03:17;;;;;;;6.70;4.43;;;4.10;99.90;;;;;;5068778;28;20029;-83
2023/04/20 05:05:43;;;;;;;8.90;5.57;;;4.10;99.90;;;;;;5070655;28;20085;-83
2023/04/20 05:08:10;;;;;;;10.93;5.90;;;4.10;99.90;;;;;;5082966;28;20033;-82
2023/04/20 05:10:35;;;;;;;10.70;6.25;;;4.10;99.90;;;;;;5088578;28;20020;-82
2023/04/20 05:13:01;;;;;;;9.63;6.22;;;4.10;99.90;;;;;;5110652;28;20067;-85
2023/04/20 05:15:27;;;;;;;8.23;5.28;;;4.10;99.90;;;;;;5109327;28;20032;-82
2023/04/20 05:17:52;;;;;;;10.00;6.63;;;4.10;99.90;;;;;;5110234;28;20035;-82
2023/04/20 05:20:19;;;;;;;11.88;7.07;;;4.10;99.90;;;;;;5116437;28;20031;-84
2023/04/20 05:22:45;;;;;;;15.98;7.78;;;4.10;99.90;;;;;;5115013;28;20050;-82
2023/04/20 05:25:11;;;;;;;10.40;6.65;;;4.10;99.90;;;;;;5066114;28;20033;-81
2023/04/20 05:27:36;;;;;;;9.27;6.03;;;4.10;99.90;;;;;;5060670;28;20028;-81
2023/04/20 05:30:03;;;;;;;9.98;6.10;;;4.20;99.90;;;;;;5072841;28;20020;-83
2023/04/20 05:32:29;;;;;;;6.63;5.35;;;4.20;99.90;;;;;;5083252;28;20056;-83
2023/04/20 05:34:57;;;;;;;8.05;5.63;;;4.20;99.90;;;;;;5084616;28;20028;-84
2023/04/20 05:37:22;;;;;;;7.95;5.07;;;4.20;99.90;;;;;;5079316;28;20063;-79
2023/04/20 05:39:48;;;;;;;9.13;5.90;;;4.30;99.90;;;;;;5078156;28;20415;-79
2023/04/20 05:42:14;;;;;;;6.55;4.85;;;4.30;99.90;;;;;;5085032;28;20084;-79
2023/04/20 05:44:40;;;;;;;6.35;4.88;;;4.30;99.90;;;;;;5079388;28;20063;-78
2023/04/20 05:47:07;;;;;;;10.35;6.18;;;4.30;99.90;;;;;;5073932;28;20029;-78
2023/04/20 05:49:33;;;;;;;7.88;5.50;;;4.40;99.90;;;;;;5079086;28;20017;-79
2023/04/20 05:52:00;;;;;;;7.00;5.50;;;4.30;99.90;;;;;;5080642;28;20437;-80
2023/04/20 05:54:27;;;;;;;8.63;5.45;;;4.30;99.90;;;;;;5080877;28;20029;-81
2023/04/20 05:56:53;;;;;;;6.30;4.30;;;4.40;99.90;;;;;;5078988;28;20088;-80
2023/04/20 05:59:19;;;;;;;6.45;4.65;;;4.40;99.90;;;;;;5072417;28;20032;-82
2023/04/20 06:01:45;;;;;;;6.45;4.40;;;4.50;99.90;;;;;;5061836;28;20041;-80
2023/04/20 06:04:10;;;;;;;4.47;3.40;;;4.50;99.90;;;;;;5072037;28;20086;-81
2023/04/20 06:06:36;;;;;;;5.20;4.30;;;4.60;99.90;;;;;;5073450;28;20049;-79
2023/04/20 06:09:03;;;;;;;6.10;4.75;;;4.60;99.90;;;;;;5076536;28;20028;-79
2023/04/20 06:11:30;;;;;;;6.88;4.65;;;4.60;99.90;;;;;;5099546;28;20016;-80
2023/04/20 06:13:56;;;;;;;7.15;5.30;;;4.50;99.90;;;;;;5085643;28;20031;-79
2023/04/20 06:16:22;;;;;;;6.43;4.30;;;4.50;99.90;;;;;;5072275;28;20031;-78
2023/04/20 06:18:48;;;;;;;5.80;4.82;;;4.60;99.90;;;;;;5063715;28;20028;-78
2023/04/20 06:21:15;;;;;;;6.53;5.63;;;4.50;99.90;;;;;;5071243;28;20021;-78
2023/04/20 06:23:41;;;;;;;6.00;4.97;;;4.50;99.90;;;;;;5072387;28;20032;-77
2023/04/20 06:26:08;;;;;;;9.20;5.95;;;4.40;99.90;;;;;;5082207;28;20020;-79
2023/04/20 06:28:35;;;;;;;7.80;5.57;;;4.30;99.90;;;;;;5077745;28;20021;-79
2023/04/20 06:31:02;;;;;;;6.32;5.20;;;4.30;99.90;;;;;;5059805;28;20053;-79
2023/04/20 06:33:28;;;;;;;6.32;4.85;;;4.40;99.90;;;;;;5071038;28;20085;-79
2023/04/20 06:35:55;;;;;;;6.40;5.00;;;4.40;99.90;;;;;;5082782;28;20024;-79
2023/04/20 06:38:28;;;;;;;5.15;4.22;;;4.40;99.90;;;;;;5086012;28;20028;-80
2023/04/20 06:40:57;;;;;;;5.13;4.35;;;4.50;99.90;;;;;;5086896;28;20051;-80
2023/04/20 06:43:26;;;;;;;6.40;5.43;;;4.50;99.90;;;;;;5076947;28;20051;-80
2023/04/20 06:45:52;;;;;;;7.22;5.38;;;4.50;99.90;;;;;;5083431;28;20110;-80
2023/04/20 06:48:17;;;;;;;5.72;4.88;;;4.50;99.90;;;;;;5073294;28;20026;-79
2023/04/20 06:50:46;;;;;;;8.02;5.03;;;4.60;99.90;;;;;;5061798;28;20086;-79
2023/04/20 06:53:11;;;;;;;6.35;5.55;;;4.70;99.90;;;;;;5058011;28;20021;-80
2023/04/20 06:55:37;;;;;;;6.15;5.40;;;4.70;99.90;;;;;;5057791;28;20386;-78
2023/04/20 06:58:03;;;;;;;5.30;4.63;;;4.70;99.90;;;;;;5059362;28;20036;-80
2023/04/20 07:00:29;;;;;;;4.72;4.15;;;4.70;99.90;;;;;;5058553;28;20029;-79
2023/04/20 07:02:54;;;;;;;4.25;3.85;;;4.70;99.90;;;;;;5058507;28;20033;-80
2023/04/20 07:05:20;;;;;;;4.45;4.03;;;4.80;99.90;;;;;;5059382;28;20079;-78
2023/04/20 07:07:46;;;;;;;4.40;4.00;;;4.80;99.90;;;;;;5071357;28;20039;-80
2023/04/20 07:10:13;;;;;;;4.32;3.92;;;4.80;99.90;;;;;;5099393;28;20059;-79
2023/04/20 07:12:39;;;;;;;5.38;4.82;;;4.80;99.90;;;;;;5087954;28;20543;-78
2023/04/20 07:15:06;;;;;;;5.28;4.13;;;4.80;99.90;;;;;;5087284;28;20132;-78
2023/04/20 07:17:33;;;;;;;4.15;3.75;;;4.90;99.90;;;;;;5087925;28;20023;-79
2023/04/20 07:20:07;;;;;;;4.68;4.25;;;4.90;99.90;;;;;;5086164;28;20060;-80
2023/04/20 07:22:33;;;;;;;4.35;3.78;;;4.90;99.90;;;;;;5086403;28;20025;-81
2023/04/20 07:25:21;;;;;;;4.28;3.58;;;4.90;99.90;;;;;;5082322;28;20051;-80
2023/04/20 07:27:47;;;;;;;3.70;3.22;;;5.00;99.90;;;;;;5057751;28;20085;-80
2023/04/20 07:30:16;;;;;;;5.10;4.60;;;5.00;99.90;;;;;;5057409;28;20056;-80
2023/04/20 07:32:42;;;;;;;5.18;4.68;;;5.00;99.90;;;;;;5056361;28;20029;-79
2023/04/20 07:35:14;;;;;;;6.90;6.20;;;4.90;99.90;;;;;;5055052;28;20536;-80
2023/04/20 07:37:42;;;;;;;8.80;7.38;;;4.80;99.90;;;;;;5066030;28;20074;-79
2023/04/20 07:40:11;;;;;;;8.45;6.93;;;4.70;99.90;;;;;;5088388;28;20035;-78
2023/04/20 07:42:37;;;;;;;7.50;6.47;;;4.70;99.90;;;;;;5087268;28;20227;-79
2023/04/20 07:45:04;;;;;;;7.75;6.75;;;4.70;99.90;;;;;;5094904;28;20119;-79
2023/04/20 07:47:31;;;;;;;7.63;6.65;;;4.60;99.90;;;;;;5092929;28;20116;-78
2023/04/20 07:49:57;;;;;;;8.95;7.00;;;4.70;99.90;;;;;;5087034;28;20039;-80
2023/04/20 07:52:24;;;;;;;8.60;7.03;;;4.60;99.90;;;;;;5086941;28;20103;-78
2023/04/20 07:54:52;;;;;;;9.05;7.28;;;4.60;99.90;;;;;;5078282;28;20029;-79
2023/04/20 07:57:21;;;;;;;9.65;7.60;;;4.60;99.90;;;;;;5065047;28;20028;-77
2023/04/20 07:59:46;;;;;;;9.55;7.53;;;4.60;99.90;;;;;;5066067;28;20032;-77
2023/04/20 08:02:12;;;;;;;7.63;6.30;;;4.70;99.90;;;;;;5067534;28;20021;-77
2023/04/20 08:04:38;;;;;;;9.20;6.75;;;4.80;99.90;;;;;;5067217;28;20021;-79
2023/04/20 08:07:07;;;;;;;8.30;7.05;;;4.90;99.90;;;;;;5061822;28;20068;-78
2023/04/20 08:09:33;;;;;;;9.30;7.10;;;4.80;99.90;;;;;;5075355;28;20035;-79
2023/04/20 08:11:59;;;;;;;7.80;6.00;;;4.80;99.90;;;;;;5103365;28;20043;-78
2023/04/20 08:14:25;;;;;;;6.45;5.70;;;5.00;99.90;;;;;;5098621;28;20031;-76
2023/04/20 08:16:51;;;;;;;6.30;5.38;;;5.10;99.90;;;;;;5092905;28;20020;-77
2023/04/20 08:19:16;;;;;;;8.15;6.50;;;5.20;99.90;;;;;;5091287;28;20013;-76
2023/04/20 08:21:42;;;;;;;10.57;7.90;;;5.20;99.90;;;;;;5086970;28;20355;-79
2023/04/20 08:24:08;;;;;;;7.90;6.75;;;5.20;99.90;;;;;;5081417;28;20020;-79
2023/04/20 08:26:38;;;;;;;7.13;6.25;;;5.20;99.90;;;;;;5084967;28;20076;-82
2023/04/20 08:29:04;;;;;;;8.32;6.82;;;5.20;99.90;;;;;;5064295;28;20508;-80
2023/04/20 08:31:30;;;;;;;8.07;6.85;;;5.30;99.90;;;;;;5063786;28;20071;-79
2023/04/20 08:33:56;;;;;;;6.57;5.90;;;5.30;99.90;;;;;;5061835;28;20028;-79
2023/04/20 08:36:22;;;;;;;7.07;6.03;;;5.30;99.90;;;;;;5064915;28;20032;-78
2023/04/20 08:38:55;;;;;;;7.10;5.65;;;5.40;99.90;;;;;;5080216;28;20036;-76
2023/04/20 08:41:21;;;;;;;6.50;5.45;;;5.50;99.90;;;;;;5107776;28;20012;-78
2023/04/20 08:43:48;;;;;;;6.28;5.28;;;5.50;99.90;;;;;;5110628;28;20035;-77
2023/04/20 08:46:16;;;;;;;6.25;5.28;;;5.60;99.90;;;;;;5066895;28;20098;-79
2023/04/20 08:48:46;;;;;;;6.10;5.15;;;5.70;99.90;;;;;;5081435;28;20092;-80
2023/04/20 08:51:15;;;;;;;4.70;4.22;;;5.70;99.90;;;;;;5080442;28;20020;-78
2023/04/20 08:53:41;;;;;;;4.97;4.15;;;5.80;99.90;;;;;;5081618;28;20072;-79
2023/04/20 08:56:07;;;;;;;4.40;3.97;;;5.90;99.90;;;;;;5081304;28;20480;-78
2023/04/20 08:58:32;;;;;;;5.50;4.40;;;6.00;99.90;;;;;;5080165;28;20036;-81
2023/04/20 09:01:01;;;;;;;5.28;4.78;;;6.00;99.90;;;;;;5077942;28;20040;-79
2023/04/20 09:03:35;;;;;;;5.25;4.43;;;5.90;99.90;;;;;;5078731;28;20021;-79
2023/04/20 09:06:00;;;;;;;5.40;4.40;;;5.80;99.90;;;;;;5080047;28;20017;-80
2023/04/20 09:08:38;;;;;;;5.93;3.88;;;5.90;99.90;;;;;;5082129;28;20457;-78
2023/04/20 09:11:04;;;;;;;3.70;3.40;;;6.10;99.90;;;;;;5080905;28;20400;-78
2023/04/20 09:13:30;;;;;;;4.70;4.15;;;6.20;99.90;;;;;;5080601;28;20480;-79
2023/04/20 09:15:56;;;;;;;4.72;4.22;;;6.10;99.90;;;;;;5081246;28;20090;-78
2023/04/20 09:18:23;;;;;;;5.35;4.15;;;6.00;99.90;;;;;;5078985;28;20028;-79
2023/04/20 09:20:49;;;;;;;4.90;4.40;;;5.90;99.90;;;;;;5080365;28;20028;-79
2023/04/20 09:23:17;;;;;;;5.50;4.93;;;5.80;99.90;;;;;;5081060;28;20024;-80
2023/04/20 09:25:45;;;;;;;4.78;4.38;;;5.80;99.90;;;;;;5076672;28;20339;-80
2023/04/20 09:28:12;;;;;;;5.53;4.88;;;5.80;99.90;;;;;;5061506;28;20017;-79
2023/04/20 09:30:44;;;;;;;5.32;4.78;;;5.80;99.90;;;;;;5060436;28;20020;-82
2023/04/20 09:33:11;;;;;;;7.35;5.10;;;5.70;99.90;;;;;;5061157;28;20029;-84
2023/04/20 09:35:42;;;;;;;6.60;5.07;;;5.70;99.90;;;;;;5060406;28;20037;-83
2023/04/20 09:38:09;;;;;;;5.70;5.10;;;5.70;99.90;;;;;;5059224;28;20029;-81
2023/04/20 09:40:36;;;;;;;5.00;4.50;;;5.70;99.90;;;;;;5083259;28;20101;-82
2023/04/20 09:43:23;;;;;;;4.88;4.45;;;5.70;99.90;;;;;;5058211;28;20055;-82
2023/04/20 09:45:49;;;;;;;5.65;4.55;;;5.80;99.90;;;;;;5059134;28;20040;-81
2023/04/20 09:48:18;;;;;;;5.82;5.07;;;5.80;99.90;;;;;;5060852;28;20036;-81
2023/04/20 09:50:44;;;;;;;5.38;4.47;;;5.80;99.90;;;;;;5061859;28;20036;-82
2023/04/20 09:53:11;;;;;;;7.50;5.68;;;5.80;99.90;;;;;;5061606;28;20041;-82
2023/04/20 09:55:37;;;;;;;7.63;5.75;;;5.90;99.90;;;;;;5060507;28;20095;-82
2023/04/20 09:58:03;;;;;;;9.00;6.07;;;5.90;99.90;;;;;;5062533;28;20025;-82
2023/04/20 10:00:32;;;;;;;10.18;8.25;;;6.00;99.90;;;;;;5062031;28;20029;-80
2023/04/20 10:02:58;;;;;;;9.35;7.55;;;6.00;99.90;;;;;;5061364;28;20081;-82
2023/04/20 10:05:35;;;;;;;7.82;6.45;;;5.90;99.90;;;;;;5069085;28;20077;-80
2023/04/20 10:08:02;;;;;;;6.55;5.82;;;5.90;99.90;;;;;;5078434;28;20056;-81
2023/04/20 10:10:28;;;;;;;6.70;5.55;;;5.80;99.90;;;;;;5101998;28;20032;-83
2023/04/20 10:13:03;;;;;;;6.82;5.97;;;5.90;99.90;;;;;;5084258;28;20164;-82
2023/04/20 10:15:39;;;;;;;8.02;5.47;;;6.00;99.90;;;;;;5081167;28;20020;-82
2023/04/20 10:18:18;;;;;;;6.72;5.85;;;6.00;99.90;;;;;;5082786;28;20043;-82
2023/04/20 10:20:46;;;;;;;7.13;5.65;;;6.00;99.90;;;;;;5091490;28;20023;-79
2023/04/20 10:23:14;;;;;;;7.70;6.32;;;6.10;99.90;;;;;;5089388;28;20059;-82
2023/04/20 10:25:41;;;;;;;7.75;6.00;;;6.30;99.90;;;;;;5069900;28;20047;-83
2023/04/20 10:28:09;;;;;;;7.53;6.18;;;6.40;99.90;;;;;;5061933;28;20453;-85
2023/04/20 10:30:36;;;;;;;6.22;5.25;;;6.30;99.90;;;;;;5062840;28;20021;-84
2023/04/20 10:33:06;;;;;;;8.02;6.43;;;6.30;99.90;;;;;;5062226;28;20100;-82
2023/04/20 10:35:47;;;;;;;7.13;5.55;;;6.30;99.90;;;;;;5069032;28;20027;-83
2023/04/20 10:38:13;;;;;;;8.25;6.82;;;6.30;99.90;;;;;;5082275;28;20029;-83
2023/04/20 10:40:39;;;;;;;7.03;5.28;;;6.20;99.90;;;;;;5090128;28;20032;-82
2023/04/20 10:43:20;;;;;;;5.97;4.88;;;6.20;99.90;;;;;;5081005;28;20043;-82
2023/04/20 10:45:46;;;;;;;8.63;6.15;;;6.30;99.90;;;;;;5078967;28;20119;-82
2023/04/20 10:48:12;;;;;;;6.82;5.90;;;6.30;99.90;;;;;;5082063;28;20059;-83
2023/04/20 10:50:38;;;;;;;9.13;5.85;;;6.30;99.90;;;;;;5082882;28;20026;-81
2023/04/20 10:53:05;;;;;;;6.43;5.65;;;6.30;99.90;;;;;;5094687;28;20044;-80
2023/04/20 10:55:30;;;;;;;8.27;5.72;;;6.20;99.90;;;;;;5087294;28;20115;-84
2023/04/20 10:57:56;;;;;;;6.25;5.60;;;6.20;99.90;;;;;;5078724;28;20070;-82
2023/04/20 11:00:27;;;;;;;5.40;4.90;;;6.20;99.90;;;;;;5077703;28;20097;-83
2023/04/20 11:02:57;;;;;;;5.57;4.70;;;6.30;99.90;;;;;;5079717;28;20107;-82
2023/04/20 11:05:26;;;;;;;8.00;6.32;;;6.30;99.90;;;;;;5081528;28;20017;-83
2023/04/20 11:07:59;;;;;;;7.47;6.00;;;6.30;99.90;;;;;;5085417;28;20013;-85
2023/04/20 11:10:39;;;;;;;5.50;5.00;;;6.50;99.90;;;;;;5101412;28;20012;-83
2023/04/20 11:13:06;;;;;;;6.90;5.88;;;6.60;99.90;;;;;;5074139;28;20051;-84
2023/04/20 11:15:33;;;;;;;7.20;5.78;;;6.60;99.90;;;;;;5070073;28;20040;-82
2023/04/20 11:18:09;;;;;;;5.78;5.13;;;6.50;99.90;;;;;;5076475;28;20028;-83
2023/04/20 11:20:35;;;;;;;5.32;4.78;;;6.40;99.90;;;;;;5091256;28;20020;-83
2023/04/20 11:23:03;;;;;;;5.30;4.55;;;6.40;99.90;;;;;;5098233;28;20017;-85
2023/04/20 11:25:29;;;;;;;5.88;5.30;;;6.40;99.90;;;;;;5094534;28;20033;-83
2023/04/20 11:28:06;;;;;;;6.25;5.13;;;6.50;99.90;;;;;;5084027;28;20025;-84
2023/04/20 11:30:40;;;;;;;5.07;4.57;;;6.50;99.90;;;;;;5094882;28;20028;-83
2023/04/20 11:33:06;;;;;;;5.32;4.82;;;6.70;99.90;;;;;;5094442;28;20020;-84
2023/04/20 11:35:41;;;;;;;4.88;4.30;;;6.90;99.90;;;;;;5087479;28;20032;-84
2023/04/20 11:38:10;;;;;;;5.65;4.80;;;7.00;99.90;;;;;;5085967;28;20032;-84
2023/04/20 11:40:36;;;;;;;5.80;4.93;;;7.00;99.90;;;;;;5101517;28;20016;-83
2023/04/20 11:43:03;;;;;;;5.25;4.70;;;7.10;99.90;;;;;;5074982;28;20017;-83
2023/04/20 11:45:32;;;;;;;5.35;3.85;;;7.10;99.90;;;;;;5068456;28;20025;-83
2023/04/20 11:47:58;;;;;;;4.32;3.92;;;7.10;99.90;;;;;;5065860;28;20017;-83
2023/04/20 11:50:24;;;;;;;4.88;3.65;;;7.20;99.90;;;;;;5078890;28;20013;-83
2023/04/20 11:52:50;;;;;;;3.97;3.65;;;7.50;99.90;;;;;;5078206;28;20055;-84
2023/04/20 11:55:16;;;;;;;4.50;3.90;;;7.80;99.90;;;;;;5082704;28;20028;-83
2023/04/20 11:57:42;;;;;;;3.20;3.00;;;8.10;99.90;;;;;;5083714;28;20043;-83
2023/04/20 12:00:08;;;;;;;2.90;2.70;;;8.40;99.90;;;;;;5086178;28;20362;-83
2023/04/20 12:02:34;;;;;;;3.60;3.30;;;8.30;99.90;;;;;;5082800;28;20084;-85
2023/04/20 12:05:01;;;;;;;5.25;3.58;;;8.20;99.90;;;;;;5080947;28;20045;-81
2023/04/20 12:07:26;;;;;;;4.28;3.10;;;8.20;99.90;;;;;;5066958;28;20032;-83
2023/04/20 12:09:53;;;;;;;4.63;4.18;;;8.30;99.90;;;;;;5077953;28;20016;-83
2023/04/20 12:12:18;;;;;;;3.40;3.10;;;8.10;99.90;;;;;;5098622;28;20027;-81
2023/04/20 12:14:44;;;;;;;4.45;4.05;;;7.90;99.90;;;;;;5104513;28;20028;-82
2023/04/20 12:17:10;;;;;;;5.18;4.13;;;7.70;99.90;;;;;;5103091;28;20024;-84
2023/04/20 12:19:36;;;;;;;5.18;4.65;;;7.70;99.90;;;;;;5104090;28;20032;-82
2023/04/20 12:22:02;;;;;;;5.47;4.97;;;7.60;99.90;;;;;;5107624;28;20103;-81
2023/04/20 12:24:28;;;;;;;4.80;4.30;;;7.50;99.90;;;;;;5088768;28;20035;-82
2023/04/20 12:26:54;;;;;;;4.53;3.97;;;7.60;99.90;;;;;;5097545;28;20029;-82
2023/04/20 12:29:19;;;;;;;5.78;4.88;;;7.70;99.90;;;;;;5089715;28;20111;-82
2023/04/20 12:31:45;;;;;;;5.32;4.60;;;7.60;99.90;;;;;;5083245;28;20106;-82
2023/04/20 12:34:11;;;;;;;6.25;4.60;;;7.60;99.90;;;;;;5079847;28;20048;-82
2023/04/20 12:36:37;;;;;;;5.38;4.25;;;7.70;99.90;;;;;;5081696;28;20056;-82
2023/04/20 12:39:03;;;;;;;3.88;3.50;;;7.80;99.90;;;;;;5075547;28;20025;-83
2023/04/20 12:41:29;;;;;;;4.80;4.05;;;7.90;99.90;;;;;;5086306;28;20024;-84
2023/04/20 12:43:59;;;;;;;4.75;3.72;;;7.80;99.90;;;;;;5084796;28;20116;-82
2023/04/20 12:46:25;;;;;;;5.07;4.57;;;7.60;99.90;;;;;;5086681;28;20029;-82
2023/04/20 12:48:51;;;;;;;5.05;4.55;;;7.50;99.90;;;;;;5084106;28;20055;-82
2023/04/20 12:51:17;;;;;;;6.07;5.22;;;7.40;99.90;;;;;;5084313;28;20036;-84
2023/04/20 12:53:43;;;;;;;5.18;4.65;;;7.40;99.90;;;;;;5080657;28;20024;-83
2023/04/20 12:56:09;;;;;;;4.25;3.85;;;7.50;99.90;;;;;;5063269;28;20029;-83